Mercer County Airport Bluefield US
ICAO: KBLF
IATA: BLF
Category: Medium
Scheduled Services: Yes

Elevation: 2857 ft
TransAlt. 18000 ft.

Airport Communications:
ASOS:132.725
INDIANAPOLIS CNTR:126.575
CTAF:122.9
ELKINS RDO:122.2

KBLF Zoom In..

If you have problems with the map follow the link
https://www.worldairports.se/pages/airport.php?
ICAO=KBLF

Runways:

(A) RW 05 length 4743 ft width 100 ft
---- / hdg 49

(B) RW 23 length 4743 ft width 100 ft
ILS 109.50 / hdg 229

Location; KBLF
Day. 08 / Time. 05.52 Zulu
* Altimeter: 30.30
* Temperature: 01° c. 33.8°f.
* Wind from: VRB° Speed 05 kn.
Dewpoint: -01° c.
Visibility: 10 Statute Miles.
Clouds: Clear (automated report).

KBLF 080552Z AUTO VRB05KT 10SM CLR 01/M01 A3030 RMK AO2 SLP270 T00111006 10033 20006 50001


Wind From VRB°
Speed 05 kn.

 
 
jpsmedia worldairports.se 2019   terms of use